Time;durP1;ratioP1;P1;durP2;ratioP2;P2;SDS_P1;SDS_P2;PMS_P1;PMS_P2;Temp;Humidity;BMP_temperature;BMP_pressure;BME280_temperature;BME280_humidity;BME280_pressure;Samples;Min_cycle;Max_cycle;Signal;HPM_P1;HPM_P2
2022/04/05 00:00:17;;;;;;;;;13.00;11.25;;;;;10.95;60.17;101133.38;5051971;28;45292;-68
2022/04/05 00:02:42;;;;;;;;;15.75;14.75;;;;;10.92;59.94;101129.13;5052012;28;45335;-67
2022/04/05 00:05:08;;;;;;;;;14.50;11.25;;;;;10.90;60.44;101137.13;5050330;28;45431;-67
2022/04/05 00:07:34;;;;;;;;;13.75;11.50;;;;;10.90;60.33;101131.88;5050659;28;45379;-68
2022/04/05 00:10:00;;;;;;;;;15.50;13.50;;;;;10.92;59.96;101141.47;5049547;28;45337;-68
2022/04/05 00:12:26;;;;;;;;;13.50;11.75;;;;;10.94;60.17;101135.16;5049825;28;45415;-68
2022/04/05 00:14:51;;;;;;;;;13.75;12.25;;;;;10.94;60.29;101129.91;5050540;28;45186;-69
2022/04/05 00:17:18;;;;;;;;;15.00;13.75;;;;;10.93;60.65;101125.56;5050645;28;45186;-68
2022/04/05 00:19:43;;;;;;;;;15.00;13.75;;;;;10.96;60.86;101125.38;5051275;28;45417;-69
2022/04/05 00:22:09;;;;;;;;;11.50;11.50;;;;;10.97;60.54;101128.88;5052291;28;45351;-68
2022/04/05 00:24:34;;;;;;;;;11.00;10.25;;;;;10.99;60.48;101122.59;5047036;28;45241;-68
2022/04/05 00:27:00;;;;;;;;;13.00;11.50;;;;;11.01;60.77;101125.16;5050262;28;45170;-68
2022/04/05 00:29:26;;;;;;;;;13.50;10.00;;;;;11.01;60.64;101133.06;5046681;28;45567;-68
2022/04/05 00:31:51;;;;;;;;;16.75;14.75;;;;;10.96;61.06;101124.53;5048697;28;46438;-69
2022/04/05 00:34:18;;;;;;;;;14.00;11.00;;;;;10.90;61.40;101134.50;5047999;28;45495;-68
2022/04/05 00:36:44;;;;;;;;;14.50;12.50;;;;;10.90;61.43;101131.88;5051086;28;45480;-67
2022/04/05 00:39:10;;;;;;;;;13.00;10.75;;;;;10.90;61.26;101128.34;5051373;28;45429;-68
2022/04/05 00:41:35;;;;;;;;;12.50;12.25;;;;;10.91;61.21;101127.44;5047981;28;45516;-69
2022/04/05 00:44:01;;;;;;;;;14.50;13.75;;;;;10.92;61.38;101134.41;5052376;28;45578;-68
2022/04/05 00:46:26;;;;;;;;;13.75;12.00;;;;;10.94;61.64;101122.00;5049490;28;45464;-68
2022/04/05 00:48:57;;;;;;;;;14.00;10.00;;;;;10.95;61.51;101136.03;5051200;28;45173;-68
2022/04/05 00:51:24;;;;;;;;;12.75;11.25;;;;;10.93;62.36;101125.56;5050468;28;45386;-68
2022/04/05 00:54:04;;;;;;;;;14.00;14.00;;;;;10.95;62.24;101122.84;5053185;28;45316;-69
2022/04/05 00:56:34;;;;;;;;;12.75;12.75;;;;;10.92;62.60;101129.13;5051502;28;45236;-68
2022/04/05 00:59:00;;;;;;;;;11.50;10.25;;;;;10.92;62.76;101129.13;5049847;28;45276;-68
2022/04/05 01:01:27;;;;;;;;;13.25;10.00;;;;;10.89;62.94;101124.00;5050695;28;45545;-68
2022/04/05 01:03:53;;;;;;;;;13.00;10.00;;;;;10.87;63.01;101117.97;5051372;28;45359;-68
2022/04/05 01:06:24;;;;;;;;;9.50;8.75;;;;;10.80;63.01;101122.72;5048953;28;45324;-68
2022/04/05 01:08:50;;;;;;;;;15.00;15.00;;;;;10.78;63.32;101121.97;5048863;28;45408;-68
2022/04/05 01:11:16;;;;;;;;;11.75;11.75;;;;;10.79;63.64;101118.41;5049517;28;45385;-68
2022/04/05 01:13:43;;;;;;;;;10.50;10.00;;;;;10.77;63.66;101116.78;5049429;28;46015;-68
2022/04/05 01:16:10;;;;;;;;;11.75;10.00;;;;;10.77;63.85;101120.28;5050949;28;45301;-68
2022/04/05 01:18:35;;;;;;;;;11.50;11.50;;;;;10.78;64.34;101121.13;5051150;28;45150;-68
2022/04/05 01:21:03;;;;;;;;;13.50;12.00;;;;;10.77;64.40;101115.00;5051719;28;45472;-68
2022/04/05 01:23:28;;;;;;;;;13.50;10.25;;;;;10.79;64.32;101113.13;5050461;28;45352;-68
2022/04/05 01:25:55;;;;;;;;;15.00;11.00;;;;;10.79;64.27;101117.56;5049713;28;45329;-69
2022/04/05 01:28:20;;;;;;;;;12.75;11.00;;;;;10.77;64.62;101112.38;5049286;28;45335;-68
2022/04/05 01:30:46;;;;;;;;;12.00;12.00;;;;;10.77;64.59;101104.47;5047656;28;45326;-68
2022/04/05 01:33:11;;;;;;;;;12.25;10.75;;;;;10.79;64.98;101104.38;5048449;28;45316;-68
2022/04/05 01:35:39;;;;;;;;;11.50;9.50;;;;;10.81;64.81;101095.44;5049042;28;45348;-68
2022/04/05 01:38:06;;;;;;;;;16.00;14.25;;;;;10.80;65.14;101098.16;5050413;28;45312;-68
2022/04/05 01:40:32;;;;;;;;;11.50;10.50;;;;;10.79;64.77;101099.09;5051175;28;45343;-69
2022/04/05 01:42:57;;;;;;;;;15.00;13.50;;;;;10.77;65.24;101095.72;5050306;28;46099;-68
2022/04/05 01:45:23;;;;;;;;;12.00;12.00;;;;;10.79;65.55;101102.59;5048799;28;45744;-69
2022/04/05 01:47:48;;;;;;;;;12.75;11.25;;;;;10.77;65.75;101091.28;5049829;28;45459;-69
2022/04/05 01:50:14;;;;;;;;;19.25;14.00;;;;;10.75;65.46;101095.81;5050059;28;45519;-67
2022/04/05 01:52:39;;;;;;;;;14.00;12.25;;;;;10.75;65.75;101092.31;5050348;28;45956;-68
2022/04/05 01:55:06;;;;;;;;;11.00;10.75;;;;;10.77;65.66;101096.56;5051484;28;45471;-69
2022/04/05 01:57:32;;;;;;;;;11.00;11.00;;;;;10.79;65.78;101085.94;5050494;28;45507;-68
2022/04/05 01:59:58;;;;;;;;;12.00;11.00;;;;;10.80;65.48;101088.47;5050456;28;45413;-68
2022/04/05 02:02:23;;;;;;;;;12.25;11.00;;;;;10.81;65.58;101090.16;5049805;28;45337;-68
2022/04/05 02:04:49;;;;;;;;;15.00;13.25;;;;;10.81;65.55;101084.91;5048612;28;45220;-68
2022/04/05 02:07:19;;;;;;;;;19.50;13.00;;;;;10.82;66.11;101080.47;5032453;28;45278;-68
2022/04/05 02:09:48;;;;;;;;;10.00;8.75;;;;;10.82;65.84;101080.47;5048629;28;45344;-68
2022/04/05 02:12:15;;;;;;;;;15.25;14.00;;;;;10.82;66.18;101078.72;5050054;28;45525;-68
2022/04/05 02:14:40;;;;;;;;;18.00;14.25;;;;;10.84;66.31;101086.53;5049980;28;45319;-68
2022/04/05 02:17:07;;;;;;;;;16.00;14.50;;;;;10.82;65.60;101085.75;5048542;28;45320;-68
2022/04/05 02:19:34;;;;;;;;;14.25;13.50;;;;;10.81;65.95;101084.06;5048283;28;45458;-68
2022/04/05 02:22:00;;;;;;;;;14.50;13.50;;;;;10.86;65.95;101084.66;5047509;28;45683;-68
2022/04/05 02:24:25;;;;;;;;;12.50;11.00;;;;;10.89;66.49;101087.97;5049515;28;45503;-68
2022/04/05 02:26:51;;;;;;;;;15.00;13.75;;;;;10.88;66.08;101088.91;5048664;28;45426;-69
2022/04/05 02:29:16;;;;;;;;;15.00;12.75;;;;;10.85;66.10;101085.59;5047973;28;45522;-69
2022/04/05 02:31:42;;;;;;;;;16.00;14.75;;;;;10.85;66.66;101081.19;5048059;28;45415;-68
2022/04/05 02:34:08;;;;;;;;;15.00;14.25;;;;;10.85;66.06;101081.19;5048478;28;45431;-68
2022/04/05 02:36:34;;;;;;;;;10.75;10.25;;;;;10.86;66.19;101082.03;5049565;28;45360;-69
2022/04/05 02:39:00;;;;;;;;;15.25;13.00;;;;;10.85;66.67;101077.69;5049851;28;45636;-68
2022/04/05 02:41:27;;;;;;;;;13.25;10.50;;;;;10.86;66.61;101066.22;5049824;28;45426;-68
2022/04/05 02:43:52;;;;;;;;;13.00;13.00;;;;;10.89;66.50;101071.31;5050835;28;45274;-68
2022/04/05 02:46:18;;;;;;;;;15.00;11.75;;;;;10.90;66.75;101068.59;5051430;28;45277;-68
2022/04/05 02:48:45;;;;;;;;;14.00;13.25;;;;;10.90;67.04;101070.38;5052008;28;45315;-68
2022/04/05 02:51:15;;;;;;;;;14.25;13.00;;;;;10.87;67.21;101071.41;5051397;28;45440;-68
2022/04/05 02:53:41;;;;;;;;;11.75;10.75;;;;;10.90;67.01;101067.72;5050663;28;45321;-68
2022/04/05 02:56:07;;;;;;;;;17.75;15.25;;;;;10.90;66.76;101060.69;5054502;28;45381;-68
2022/04/05 02:58:36;;;;;;;;;9.50;9.50;;;;;10.88;66.98;101056.44;5053053;28;45401;-68
2022/04/05 03:01:03;;;;;;;;;10.25;9.75;;;;;10.84;67.14;101058.41;5054129;28;45699;-69
2022/04/05 03:03:29;;;;;;;;;11.00;9.75;;;;;10.87;67.20;101055.59;5053039;28;45427;-69
2022/04/05 03:05:54;;;;;;;;;12.75;11.25;;;;;10.90;67.71;101065.09;5050809;28;45380;-68
2022/04/05 03:08:20;;;;;;;;;14.25;13.75;;;;;10.91;67.44;101066.81;5050921;28;45325;-65
2022/04/05 03:10:45;;;;;;;;;14.25;14.00;;;;;10.93;67.93;101061.47;5050953;28;45403;-67
2022/04/05 03:13:11;;;;;;;;;16.25;14.00;;;;;10.93;68.02;101057.03;5046159;28;45305;-67
2022/04/05 03:15:37;;;;;;;;;13.50;13.00;;;;;10.94;68.18;101052.63;5042880;28;45395;-67
2022/04/05 03:18:03;;;;;;;;;13.50;11.75;;;;;10.93;68.18;101050.91;5042404;28;45407;-67
2022/04/05 03:20:28;;;;;;;;;11.75;10.00;;;;;10.93;68.16;101048.28;5042140;28;45238;-67
2022/04/05 03:22:55;;;;;;;;;10.75;9.25;;;;;10.93;68.31;101045.66;5042427;28;45315;-67
2022/04/05 03:25:22;;;;;;;;;14.75;12.75;;;;;10.94;68.24;101049.97;5042845;28;45324;-68
2022/04/05 03:27:48;;;;;;;;;14.00;13.50;;;;;10.90;68.35;101050.16;5042514;28;45236;-68
2022/04/05 03:30:15;;;;;;;;;14.00;13.00;;;;;10.88;68.12;101044.09;5041135;28;45327;-67
2022/04/05 03:32:41;;;;;;;;;10.25;10.25;;;;;10.87;68.39;101045.03;5040728;28;45337;-67
2022/04/05 03:35:07;;;;;;;;;10.75;9.00;;;;;10.87;68.66;101042.41;5041733;28;45541;-67
2022/04/05 03:37:33;;;;;;;;;10.50;10.50;;;;;10.87;68.71;101041.56;5042550;28;45390;-67
2022/04/05 03:40:02;;;;;;;;;11.00;11.00;;;;;10.87;68.54;101039.78;5045254;28;46230;-68
2022/04/05 03:42:27;;;;;;;;;12.75;10.00;;;;;10.84;68.77;101039.09;5044165;28;45214;-68
2022/04/05 03:44:53;;;;;;;;;11.00;10.00;;;;;10.83;69.01;101038.25;5062738;28;45156;-68
2022/04/05 03:47:18;;;;;;;;;13.25;9.00;;;;;10.81;69.18;101034.84;5062538;28;45538;-67
2022/04/05 03:49:45;;;;;;;;;9.00;9.00;;;;;10.83;69.05;101029.50;5062274;28;45251;-67
2022/04/05 03:52:11;;;;;;;;;14.75;11.75;;;;;10.84;68.88;101028.56;5062143;28;45327;-67
2022/04/05 03:54:37;;;;;;;;;11.25;10.00;;;;;10.85;69.09;101032.91;5061409;28;45392;-67
2022/04/05 03:57:03;;;;;;;;;10.75;10.00;;;;;10.84;69.05;101032.03;5044228;28;45610;-68
2022/04/05 03:59:28;;;;;;;;;8.75;8.75;;;;;10.84;69.33;101031.19;5062241;28;46104;-68
2022/04/05 04:01:54;;;;;;;;;14.00;11.25;;;;;10.82;69.50;101039.19;5061706;28;45321;-67
2022/04/05 04:04:19;;;;;;;;;12.75;11.50;;;;;10.82;69.62;101031.28;5053905;28;45249;-67
2022/04/05 04:06:44;;;;;;;;;10.00;10.00;;;;;10.81;69.53;101040.09;5041689;28;45448;-67
2022/04/05 04:09:11;;;;;;;;;11.25;9.50;;;;;10.81;69.62;101032.19;5041643;28;45784;-68
2022/04/05 04:11:40;;;;;;;;;17.25;11.25;;;;;10.80;69.71;101038.41;5041679;28;45222;-68
2022/04/05 04:14:06;;;;;;;;;11.00;9.25;;;;;10.78;69.65;101031.53;5041990;28;45279;-68
2022/04/05 04:16:31;;;;;;;;;11.25;9.75;;;;;10.76;69.80;101030.78;5041589;28;45605;-67
2022/04/05 04:18:57;;;;;;;;;11.00;10.00;;;;;10.76;70.01;101023.72;5041753;28;45266;-68
2022/04/05 04:21:22;;;;;;;;;9.00;9.00;;;;;10.76;70.40;101023.72;5041078;28;45383;-68
2022/04/05 04:23:48;;;;;;;;;10.50;10.50;;;;;10.77;70.37;101027.19;5041652;28;45328;-67
2022/04/05 04:26:14;;;;;;;;;8.25;8.25;;;;;10.76;70.85;101022.88;5041715;28;45254;-67
2022/04/05 04:28:39;;;;;;;;;11.50;9.00;;;;;10.75;70.67;101021.19;5041567;28;45311;-68
2022/04/05 04:31:05;;;;;;;;;9.00;8.50;;;;;10.75;70.27;101026.44;5041314;28;45383;-68
2022/04/05 04:33:30;;;;;;;;;15.00;12.25;;;;;10.74;70.55;101019.44;5041734;28;45384;-68
2022/04/05 04:35:57;;;;;;;;;11.00;8.25;;;;;10.73;71.17;101021.22;5041393;28;45774;-68
2022/04/05 04:38:23;;;;;;;;;9.00;8.50;;;;;10.72;71.01;101019.53;5041408;28;46229;-68
2022/04/05 04:40:50;;;;;;;;;7.75;7.25;;;;;10.73;71.39;101017.75;5045802;28;45241;-68
2022/04/05 04:43:17;;;;;;;;;9.25;9.25;;;;;10.74;70.93;101014.19;5061394;28;45225;-68
2022/04/05 04:45:43;;;;;;;;;13.00;10.25;;;;;10.73;71.45;101012.47;5061517;28;45319;-68
2022/04/05 04:48:08;;;;;;;;;12.00;10.00;;;;;10.76;71.34;101017.59;5061360;28;45428;-68
2022/04/05 04:50:34;;;;;;;;;9.75;9.50;;;;;10.75;70.98;101021.19;5061017;28;45501;-68
2022/04/05 04:52:59;;;;;;;;;11.00;10.00;;;;;10.76;71.12;101012.34;5061523;28;45424;-68
2022/04/05 04:55:25;;;;;;;;;8.00;8.00;;;;;10.77;71.23;101017.50;5061224;28;45341;-68
2022/04/05 04:57:52;;;;;;;;;8.25;8.25;;;;;10.79;71.52;101010.34;5061199;28;45310;-68
2022/04/05 05:00:17;;;;;;;;;12.50;11.25;;;;;10.77;71.32;101017.50;5061046;28;45432;-68
2022/04/05 05:02:50;;;;;;;;;10.25;10.25;;;;;10.78;70.94;101013.09;5060837;28;45459;-68
2022/04/05 05:05:20;;;;;;;;;11.00;6.50;;;;;10.78;71.28;101007.81;5044477;28;45372;-68
2022/04/05 05:07:50;;;;;;;;;13.00;10.00;;;;;10.76;71.31;101009.69;5040973;28;45258;-68
2022/04/05 05:10:17;;;;;;;;;10.00;10.00;;;;;10.76;71.55;101013.19;5040930;28;45332;-69
2022/04/05 05:12:43;;;;;;;;;15.25;11.50;;;;;10.72;71.73;101011.63;5041190;28;45326;-68
2022/04/05 05:15:10;;;;;;;;;13.25;10.00;;;;;10.75;71.55;101016.75;5041026;28;45234;-68
2022/04/05 05:17:36;;;;;;;;;11.50;10.25;;;;;10.75;71.41;101005.38;5040658;28;46208;-68
2022/04/05 05:20:05;;;;;;;;;10.50;10.25;;;;;10.76;71.94;101009.69;5040301;28;45351;-68
2022/04/05 05:22:30;;;;;;;;;11.75;10.00;;;;;10.79;71.71;101012.16;5041162;28;45370;-68
2022/04/05 05:24:56;;;;;;;;;13.50;9.00;;;;;10.78;71.57;101010.44;5040686;28;45488;-68
2022/04/05 05:27:21;;;;;;;;;11.75;11.75;;;;;10.78;72.14;101011.28;5040697;28;45952;-68
2022/04/05 05:29:47;;;;;;;;;11.50;11.25;;;;;10.77;71.40;101004.34;5040409;28;45435;-68
2022/04/05 05:32:12;;;;;;;;;14.00;12.00;;;;;10.76;71.99;101007.91;5049406;28;45387;-69
2022/04/05 05:34:38;;;;;;;;;16.50;11.25;;;;;10.77;72.09;101011.38;5048370;28;45256;-68
2022/04/05 05:37:05;;;;;;;;;16.00;14.00;;;;;10.77;71.75;101009.59;5048830;28;45163;-66
2022/04/05 05:39:33;;;;;;;;;13.50;12.25;;;;;10.78;72.14;101008.66;5050224;28;45363;-68
2022/04/05 05:41:59;;;;;;;;;17.50;11.25;;;;;10.80;72.31;101008.56;5050502;28;45448;-76
2022/04/05 05:44:24;;;;;;;;;15.00;11.50;;;;;10.82;71.93;101006.69;5050412;28;45555;-72
2022/04/05 05:46:50;;;;;;;;;13.25;11.00;;;;;10.82;71.82;101004.94;5050705;28;45444;-71
2022/04/05 05:49:16;;;;;;;;;21.50;16.00;;;;;10.83;72.27;101005.78;5052251;28;45685;-73
2022/04/05 05:51:42;;;;;;;;;17.00;14.75;;;;;10.83;72.09;101011.91;5049884;28;45419;-73
2022/04/05 05:54:08;;;;;;;;;16.75;14.00;;;;;10.82;71.92;101004.94;5050681;28;44806;-75
2022/04/05 05:56:33;;;;;;;;;19.25;16.00;;;;;10.82;72.40;101012.84;5048325;28;45377;-77
2022/04/05 05:58:59;;;;;;;;;16.25;14.00;;;;;10.85;72.41;101015.28;5047798;28;45420;-76
2022/04/05 06:01:24;;;;;;;;;20.00;17.00;;;;;10.88;72.01;101016.91;5049068;28;45432;-73
2022/04/05 06:03:50;;;;;;;;;16.50;16.25;;;;;10.89;71.81;101018.59;5053025;28;45380;-74
2022/04/05 06:06:16;;;;;;;;;17.50;15.50;;;;;10.87;71.88;101028.38;5047493;28;46006;-77
2022/04/05 06:08:42;;;;;;;;;16.25;13.00;;;;;10.87;72.26;101020.47;5042089;28;45429;-67
2022/04/05 06:11:07;;;;;;;;;14.50;14.25;;;;;10.86;72.29;101027.53;5043258;28;45446;-81
2022/04/05 06:13:34;;;;;;;;;18.25;16.50;;;;;10.90;72.11;101022.94;5042317;28;45364;-79
2022/04/05 06:15:59;;;;;;;;;15.25;15.00;;;;;10.92;71.79;101036.03;5039862;28;45443;-77
2022/04/05 06:18:25;;;;;;;;;22.00;17.25;;;;;10.93;72.05;101033.31;5041752;28;45594;-66
2022/04/05 06:20:50;;;;;;;;;13.00;10.00;;;;;10.95;71.90;101041.97;5048873;28;45309;-71
2022/04/05 06:23:16;;;;;;;;;16.50;15.25;;;;;10.97;71.96;101041.88;5045074;28;45612;-73
2022/04/05 06:25:41;;;;;;;;;16.25;11.50;;;;;11.01;71.95;101046.06;5043186;28;45946;-73
2022/04/05 06:28:09;;;;;;;;;14.50;13.25;;;;;11.01;71.77;101046.91;5043101;28;45407;-70
2022/04/05 06:30:37;;;;;;;;;16.50;13.75;;;;;11.02;71.82;101045.97;5043437;28;45418;-73
2022/04/05 06:33:12;;;;;;;;;16.50;13.25;;;;;11.05;72.16;101052.84;5043188;28;45460;-73
2022/04/05 06:35:41;;;;;;;;;14.00;12.25;;;;;11.07;72.43;101053.63;5042912;28;45996;-73
2022/04/05 06:38:07;;;;;;;;;20.50;14.75;;;;;11.12;72.28;101059.47;5042902;28;45359;-74
2022/04/05 06:40:33;;;;;;;;;16.50;10.75;;;;;11.14;73.08;101062.91;5045740;28;45255;-74
2022/04/05 06:42:58;;;;;;;;;14.00;11.00;;;;;11.16;72.68;101055.75;5062726;28;45581;-75
2022/04/05 06:45:24;;;;;;;;;10.00;8.00;;;;;11.19;72.66;101060.84;5063051;28;46175;-75
2022/04/05 06:47:50;;;;;;;;;13.00;13.00;;;;;11.22;73.00;101063.31;5063030;28;45251;-75
2022/04/05 06:50:24;;;;;;;;;13.75;13.00;;;;;11.25;72.84;101057.88;5062850;28;45266;-76
2022/04/05 06:52:50;;;;;;;;;10.00;9.00;;;;;11.25;72.89;101052.59;5055944;28;45439;-75
2022/04/05 06:55:16;;;;;;;;;16.00;11.75;;;;;11.26;73.16;101050.81;5033517;28;45370;-76
2022/04/05 06:57:42;;;;;;;;;17.00;13.75;;;;;11.29;73.47;101053.25;5051581;28;45344;-76
2022/04/05 07:00:10;;;;;;;;;11.50;10.25;;;;;11.29;73.38;101059.38;5052625;28;45338;-76
2022/04/05 07:02:35;;;;;;;;;14.25;14.00;;;;;11.31;73.53;101057.53;5054296;28;45305;-77
2022/04/05 07:05:01;;;;;;;;;11.50;8.50;;;;;11.34;73.12;101065.25;5050169;28;46242;-76
2022/04/05 07:07:27;;;;;;;;;15.50;12.00;;;;;11.37;73.02;101056.28;5062512;28;45378;-80
2022/04/05 07:09:52;;;;;;;;;14.25;12.75;;;;;11.40;73.26;101051.72;5049204;28;45287;-75
2022/04/05 07:12:18;;;;;;;;;17.75;14.00;;;;;11.44;73.14;101045.31;5051023;28;45235;-75
2022/04/05 07:14:43;;;;;;;;;19.00;12.25;;;;;11.48;73.14;101038.06;5052416;28;45148;-75
2022/04/05 07:17:09;;;;;;;;;16.75;12.25;;;;;11.52;73.01;101046.66;5052450;28;45228;-75
2022/04/05 07:19:34;;;;;;;;;14.00;10.00;;;;;11.56;73.51;101049.03;5052509;28;45240;-75
2022/04/05 07:22:01;;;;;;;;;15.50;9.50;;;;;11.61;73.08;101043.47;5050876;28;45459;-76
2022/04/05 07:24:27;;;;;;;;;17.25;14.00;;;;;11.64;73.14;101048.59;5050393;28;45251;-75
2022/04/05 07:26:54;;;;;;;;;21.25;15.50;;;;;11.68;72.80;101045.66;5050301;28;45423;-75
2022/04/05 07:29:19;;;;;;;;;11.50;9.25;;;;;11.73;73.01;101045.41;5049752;28;45497;-75
2022/04/05 07:31:45;;;;;;;;;14.00;12.75;;;;;11.79;73.17;101046.84;5051964;28;45412;-76
2022/04/05 07:34:11;;;;;;;;;9.75;9.00;;;;;11.79;72.83;101042.41;5052035;28;45832;-77
2022/04/05 07:36:37;;;;;;;;;14.00;11.00;;;;;11.80;72.70;101038.84;5052879;28;45379;-76
2022/04/05 07:39:02;;;;;;;;;15.75;12.25;;;;;11.82;73.04;101046.69;5054426;28;45388;-76
2022/04/05 07:41:28;;;;;;;;;10.00;9.00;;;;;11.84;73.10;101050.91;5052445;28;45222;-76
2022/04/05 07:43:54;;;;;;;;;14.75;10.00;;;;;11.92;72.85;101053.09;5052530;28;46343;-76
2022/04/05 07:46:19;;;;;;;;;10.75;10.75;;;;;12.01;73.03;101055.22;5053038;28;45432;-77
2022/04/05 07:48:47;;;;;;;;;10.50;10.00;;;;;12.05;72.41;101054.06;5050221;28;45457;-78
2022/04/05 07:51:13;;;;;;;;;10.25;10.25;;;;;12.04;72.60;101057.66;5052868;28;45535;-79
2022/04/05 07:53:38;;;;;;;;;10.75;10.00;;;;;12.03;72.77;101053.31;5052419;28;45407;-77
2022/04/05 07:56:04;;;;;;;;;14.50;13.75;;;;;12.04;72.39;101049.72;5052684;28;45325;-78
2022/04/05 07:58:30;;;;;;;;;19.00;16.50;;;;;12.07;72.53;101051.31;5051635;28;45320;-77
2022/04/05 08:00:56;;;;;;;;;20.25;15.75;;;;;12.11;72.68;101053.69;5051600;28;45613;-76
2022/04/05 08:03:22;;;;;;;;;38.00;30.00;;;;;12.13;72.66;101051.81;5050548;28;45321;-75
2022/04/05 08:05:49;;;;;;;;;39.75;33.75;;;;;12.17;72.44;101049.84;5048477;28;45331;-76
2022/04/05 08:08:15;;;;;;;;;47.25;35.75;;;;;12.19;72.69;101051.44;5041715;28;45162;-77
2022/04/05 08:10:40;;;;;;;;;37.00;34.00;;;;;12.22;72.63;101053.03;5041680;28;45233;-77
2022/04/05 08:13:06;;;;;;;;;29.50;25.50;;;;;12.22;72.40;101056.53;5041301;28;45258;-77
2022/04/05 08:15:31;;;;;;;;;34.00;25.75;;;;;12.25;72.45;101055.50;5041475;28;45415;-76
2022/04/05 08:17:57;;;;;;;;;22.75;18.50;;;;;12.27;72.26;101059.75;5041514;28;45301;-77
2022/04/05 08:20:23;;;;;;;;;19.25;15.50;;;;;12.26;72.17;101050.13;5042860;28;45474;-77
2022/04/05 08:22:49;;;;;;;;;15.75;12.75;;;;;12.25;72.52;101055.50;5049126;28;46075;-77
2022/04/05 08:25:17;;;;;;;;;11.75;10.00;;;;;12.26;72.51;101058.06;5049752;28;45328;-76
2022/04/05 08:27:48;;;;;;;;;13.50;12.50;;;;;12.28;72.70;101058.81;5050059;28;45408;-76
2022/04/05 08:30:15;;;;;;;;;11.75;11.00;;;;;12.33;72.61;101055.88;5048534;28;45530;-78
2022/04/05 08:32:43;;;;;;;;;15.50;12.50;;;;;12.41;72.80;101066.84;5048781;28;46186;-73
2022/04/05 08:35:12;;;;;;;;;13.50;11.75;;;;;12.48;72.28;101057.59;5049202;28;45178;-73
2022/04/05 08:37:38;;;;;;;;;11.75;10.25;;;;;12.49;72.31;101064.56;5048685;28;45339;-74
2022/04/05 08:40:06;;;;;;;;;16.25;12.75;;;;;12.52;72.63;101060.88;5052334;28;45408;-70
2022/04/05 08:42:41;;;;;;;;;12.75;11.50;;;;;12.54;72.44;101059.81;5053641;28;45508;-69
2022/04/05 08:45:10;;;;;;;;;16.25;14.00;;;;;12.56;72.41;101057.97;5060031;28;45494;-68
2022/04/05 08:47:40;;;;;;;;;12.25;12.25;;;;;12.60;72.39;101060.41;5042579;28;45392;-69
2022/04/05 08:50:07;;;;;;;;;16.25;12.75;;;;;12.63;72.46;101061.03;5040464;28;46576;-69
2022/04/05 08:52:34;;;;;;;;;12.25;10.75;;;;;12.66;72.35;101058.22;5040928;28;46232;-69
2022/04/05 08:55:00;;;;;;;;;17.00;14.50;;;;;12.70;72.55;101057.06;5041197;28;45249;-70
2022/04/05 08:57:25;;;;;;;;;12.75;9.25;;;;;12.75;72.53;101057.63;5041055;28;45245;-69
2022/04/05 08:59:51;;;;;;;;;12.25;10.00;;;;;12.77;72.47;101061.03;5040822;28;45428;-70
2022/04/05 09:02:25;;;;;;;;;10.75;10.75;;;;;12.81;72.04;101059.91;5042149;28;46013;-69
2022/04/05 09:04:50;;;;;;;;;13.00;10.75;;;;;12.81;72.37;101049.31;5046312;28;45501;-70
2022/04/05 09:07:25;;;;;;;;;16.50;11.75;;;;;12.83;72.07;101050.06;5040115;28;45305;-69
2022/04/05 09:10:10;;;;;;;;;13.25;13.25;;;;;12.86;72.21;101046.38;5040653;28;45253;-69
2022/04/05 09:12:45;;;;;;;;;12.25;12.25;;;;;12.87;71.87;101056.00;5040393;28;45414;-69
2022/04/05 09:15:24;;;;;;;;;10.75;10.00;;;;;12.88;71.78;101049.78;5040263;28;45316;-70
2022/04/05 09:17:50;;;;;;;;;15.75;12.50;;;;;12.88;71.91;101055.09;5040823;28;45343;-69
2022/04/05 09:20:18;;;;;;;;;17.25;12.75;;;;;12.93;71.70;101050.31;5040427;28;45403;-69
2022/04/05 09:22:44;;;;;;;;;21.25;16.50;;;;;12.95;71.37;101045.78;5040359;28;46229;-69
2022/04/05 09:25:12;;;;;;;;;12.50;11.00;;;;;13.00;71.54;101048.13;5040686;28;45452;-70
2022/04/05 09:27:51;;;;;;;;;15.00;12.25;;;;;13.05;71.39;101049.56;5040390;28;45342;-70
2022/04/05 09:30:19;;;;;;;;;14.75;12.00;;;;;13.13;71.30;101055.19;5040842;28;45543;-69
2022/04/05 09:32:48;;;;;;;;;15.25;14.50;;;;;13.21;71.44;101052.09;5040262;28;45360;-70
2022/04/05 09:35:17;;;;;;;;;13.50;12.00;;;;;13.27;70.93;101049.03;5040518;28;45503;-69
2022/04/05 09:37:42;;;;;;;;;14.00;9.75;;;;;13.34;70.76;101060.91;5040490;28;45347;-69
2022/04/05 09:40:15;;;;;;;;;17.25;12.00;;;;;13.37;70.65;101054.56;5042446;28;45170;-69
2022/04/05 09:43:13;;;;;;;;;14.75;13.00;;;;;13.43;70.51;101062.13;5057942;28;45410;-69
2022/04/05 09:45:41;;;;;;;;;11.75;11.00;;;;;13.47;70.60;101060.94;5060108;28;45233;-69
2022/04/05 09:48:08;;;;;;;;;12.50;11.00;;;;;13.49;70.53;101045.81;5060867;28;45333;-69
2022/04/05 09:51:00;;;;;;;;;13.00;10.25;;;;;13.53;70.18;101049.13;5060189;28;45285;-69
2022/04/05 09:53:54;;;;;;;;;12.00;11.25;;;;;13.52;70.19;101053.56;5062569;28;45329;-69
2022/04/05 09:56:40;;;;;;;;;13.50;10.75;;;;;13.52;70.22;101047.41;5064032;28;45359;-69
2022/04/05 09:59:17;;;;;;;;;13.25;11.25;;;;;13.51;70.38;101059.81;5063397;28;45331;-69
2022/04/05 10:01:45;;;;;;;;;13.75;10.25;;;;;13.53;70.44;101049.97;5063715;28;45265;-69
2022/04/05 10:04:14;;;;;;;;;9.25;9.25;;;;;13.53;70.20;101052.59;5056416;28;46211;-69
2022/04/05 10:06:46;;;;;;;;;11.25;10.75;;;;;13.49;70.09;101052.91;5043439;28;45310;-69
2022/04/05 10:09:13;;;;;;;;;11.25;11.25;;;;;13.46;70.10;101056.59;5043846;28;45367;-69
2022/04/05 10:11:40;;;;;;;;;13.50;9.50;;;;;13.45;70.25;101046.13;5044046;28;45191;-69
2022/04/05 10:14:08;;;;;;;;;13.50;10.50;;;;;13.43;70.17;101058.59;5043683;28;45297;-69
2022/04/05 10:16:34;;;;;;;;;11.50;10.00;;;;;13.39;70.17;101053.50;5043302;28;45393;-70
2022/04/05 10:19:04;;;;;;;;;14.25;10.00;;;;;13.35;70.39;101059.09;5043761;28;45358;-70
2022/04/05 10:21:31;;;;;;;;;11.75;10.00;;;;;13.31;70.40;101055.81;5043364;28;45180;-69
2022/04/05 10:23:58;;;;;;;;;19.00;18.25;;;;;13.33;70.45;101061.00;5043533;28;45365;-69
2022/04/05 10:26:32;;;;;;;;;13.00;10.25;;;;;13.34;70.58;101054.75;5043002;28;45295;-69
2022/04/05 10:29:01;;;;;;;;;11.75;11.50;;;;;13.33;70.84;101061.00;5043649;28;45293;-69
2022/04/05 10:31:42;;;;;;;;;14.75;11.50;;;;;13.33;70.57;101056.56;5043308;28;45327;-70
2022/04/05 10:34:29;;;;;;;;;13.50;12.00;;;;;13.36;70.65;101056.38;5035019;28;45375;-69
2022/04/05 10:37:10;;;;;;;;;13.00;11.25;;;;;13.39;70.73;101055.31;5043028;28;45313;-69
2022/04/05 10:39:37;;;;;;;;;14.75;12.50;;;;;13.38;70.57;101058.91;5046025;28;45515;-69
2022/04/05 10:42:09;;;;;;;;;13.00;9.50;;;;;13.40;70.79;101057.84;5054807;28;45437;-69
2022/04/05 10:44:36;;;;;;;;;12.75;11.25;;;;;13.45;70.64;101054.06;5063106;28;45284;-70
2022/04/05 10:47:04;;;;;;;;;13.00;13.00;;;;;13.51;70.67;101057.16;5062987;28;45434;-69
2022/04/05 10:49:43;;;;;;;;;10.50;10.50;;;;;13.59;70.26;101046.91;5063061;28;45261;-70
2022/04/05 10:52:17;;;;;;;;;13.25;11.00;;;;;13.64;70.10;101047.44;5063255;28;45525;-69
2022/04/05 10:54:52;;;;;;;;;7.75;7.75;;;;;13.68;69.87;101048.94;5063051;28;45292;-69
2022/04/05 10:57:31;;;;;;;;;11.25;9.75;;;;;13.70;69.88;101043.53;5062850;28;45498;-70
2022/04/05 11:00:03;;;;;;;;;11.75;10.75;;;;;13.71;70.11;101042.56;5063073;28;45227;-70
2022/04/05 11:02:33;;;;;;;;;12.50;11.25;;;;;13.72;70.05;101038.97;5062739;28;46089;-70
2022/04/05 11:05:01;;;;;;;;;11.00;10.00;;;;;13.77;70.02;101033.38;5048581;28;45615;-70
2022/04/05 11:07:27;;;;;;;;;11.25;10.75;;;;;13.85;69.62;101039.00;5042819;28;45487;-71
2022/04/05 11:09:59;;;;;;;;;9.75;7.75;;;;;13.92;69.89;101050.88;5042821;28;45316;-70
2022/04/05 11:12:30;;;;;;;;;13.25;12.25;;;;;13.94;69.41;101046.31;5042732;28;45552;-70